createdAt,value
2023-02-11T00:01:32.224Z,31.32
2023-02-11T00:04:05.556Z,31.81
2023-02-11T00:06:37.229Z,31.24
2023-02-11T00:09:10.436Z,31.98
2023-02-11T00:11:42.051Z,30.96
2023-02-11T00:14:13.688Z,31.37
2023-02-11T00:16:45.326Z,30.86
2023-02-11T00:19:16.929Z,31.68
2023-02-11T00:21:48.535Z,30.18
2023-02-11T00:24:20.155Z,31.20
2023-02-11T00:26:51.868Z,30.76
2023-02-11T00:29:23.686Z,31.68
2023-02-11T00:31:55.365Z,33.49
2023-02-11T00:34:28.931Z,33.15
2023-02-11T00:37:00.525Z,32.60
2023-02-11T00:39:32.588Z,32.84
2023-02-11T00:42:04.359Z,32.88
2023-02-11T00:44:35.988Z,32.96
2023-02-11T00:47:07.567Z,33.01
2023-02-11T00:49:39.300Z,33.76
2023-02-11T00:52:10.942Z,33.80
2023-02-11T00:54:42.600Z,33.41
2023-02-11T00:57:14.294Z,34.04
2023-02-11T00:59:45.967Z,32.81
2023-02-11T01:02:17.612Z,33.84
2023-02-11T01:04:49.267Z,34.87
2023-02-11T01:07:21.060Z,35.13
2023-02-11T01:09:53.473Z,35.60
2023-02-11T01:12:25.683Z,34.99
2023-02-11T01:14:57.291Z,34.60
2023-02-11T01:17:28.983Z,34.36
2023-02-11T01:20:07.385Z,34.34
2023-02-11T01:22:39.080Z,33.21
2023-02-11T01:25:10.812Z,33.36
2023-02-11T01:27:42.828Z,33.22
2023-02-11T01:30:14.835Z,32.54
2023-02-11T01:32:46.471Z,32.37
2023-02-11T01:35:18.153Z,32.29
2023-02-11T01:37:49.717Z,31.51
2023-02-11T01:40:22.857Z,31.99
2023-02-11T01:42:54.528Z,33.17
2023-02-11T01:45:44.533Z,32.13
2023-02-11T01:48:32.437Z,32.84
2023-02-11T01:51:16.780Z,31.46
2023-02-11T01:53:50.981Z,32.45
2023-02-11T01:56:26.121Z,33.06
2023-02-11T01:59:06.240Z,34.91
2023-02-11T02:01:44.887Z,34.38
2023-02-11T02:04:19.262Z,34.26
2023-02-11T02:06:57.980Z,34.61
2023-02-11T02:09:39.510Z,37.26
2023-02-11T02:12:11.214Z,39.38
2023-02-11T02:14:43.110Z,43.52
2023-02-11T02:17:36.961Z,43.05
2023-02-11T02:20:34.679Z,43.46
2023-02-11T02:23:27.750Z,42.53
2023-02-11T02:26:37.885Z,39.75
2023-02-11T02:29:46.652Z,39.71
2023-02-11T02:32:39.685Z,38.50
2023-02-11T02:35:39.077Z,38.79
2023-02-11T02:38:20.701Z,38.51
2023-02-11T02:40:56.609Z,38.20
2023-02-11T02:43:30.623Z,38.33
2023-02-11T02:46:25.121Z,37.53
2023-02-11T02:48:58.514Z,38.83
2023-02-11T02:51:58.253Z,40.10
2023-02-11T02:55:05.796Z,40.24
2023-02-11T02:57:58.612Z,37.23
2023-02-11T03:00:38.558Z,37.99
2023-02-11T03:03:29.276Z,38.79
2023-02-11T03:06:50.325Z,38.75
2023-02-11T03:09:40.213Z,38.27
2023-02-11T03:12:14.515Z,39.69
2023-02-11T03:14:52.292Z,39.69
2023-02-11T03:17:28.246Z,41.27
2023-02-11T03:20:02.259Z,39.49
2023-02-11T03:22:59.783Z,40.55
2023-02-11T03:25:48.755Z,40.58
2023-02-11T03:28:49.506Z,41.17
2023-02-11T03:32:04.250Z,41.10
2023-02-11T03:35:03.798Z,41.95
2023-02-11T03:37:43.718Z,40.34
2023-02-11T03:40:26.892Z,39.97
2023-02-11T03:43:09.714Z,38.10
2023-02-11T03:45:41.711Z,38.51
2023-02-11T03:48:40.694Z,38.68
2023-02-11T03:51:16.125Z,38.60
2023-02-11T03:53:52.596Z,38.46
2023-02-11T03:56:30.040Z,37.69
2023-02-11T03:59:01.766Z,38.11
2023-02-11T04:01:33.752Z,37.07
2023-02-11T04:04:06.520Z,38.48
2023-02-11T04:06:38.360Z,39.62
2023-02-11T04:09:11.424Z,38.31
2023-02-11T04:11:43.103Z,37.92
2023-02-11T04:14:14.757Z,39.05
2023-02-11T04:16:46.405Z,40.04
2023-02-11T04:19:18.004Z,38.77
2023-02-11T04:21:49.546Z,39.77
2023-02-11T04:24:21.139Z,39.75
2023-02-11T04:26:52.740Z,38.86
2023-02-11T04:29:24.548Z,39.24
2023-02-11T04:31:56.254Z,37.70
2023-02-11T04:34:28.091Z,39.10
2023-02-11T04:36:59.696Z,37.45
2023-02-11T04:39:31.326Z,38.92
2023-02-11T04:42:03.039Z,38.16
2023-02-11T04:44:34.638Z,38.67
2023-02-11T04:47:06.262Z,37.93
2023-02-11T04:49:37.866Z,38.33
2023-02-11T04:52:09.534Z,36.86
2023-02-11T04:54:41.168Z,37.02
2023-02-11T04:57:12.847Z,35.47
2023-02-11T04:59:44.722Z,35.83
2023-02-11T05:02:16.424Z,36.11
2023-02-11T05:04:48.062Z,36.36
2023-02-11T05:07:19.685Z,37.65
2023-02-11T05:09:51.255Z,40.06
2023-02-11T05:12:22.988Z,45.46
2023-02-11T05:14:54.583Z,43.84
2023-02-11T05:17:26.244Z,46.65
2023-02-11T05:19:57.859Z,46.26
2023-02-11T05:22:29.415Z,44.70
2023-02-11T05:25:01.015Z,41.34
2023-02-11T05:27:32.710Z,39.00
2023-02-11T05:30:06.152Z,37.99
2023-02-11T05:32:37.707Z,37.63
2023-02-11T05:35:09.333Z,37.65
2023-02-11T05:37:40.977Z,37.44
2023-02-11T05:40:12.702Z,37.46
2023-02-11T05:42:44.456Z,36.65
2023-02-11T05:45:16.273Z,37.63
2023-02-11T05:47:47.859Z,36.98
2023-02-11T05:50:19.641Z,36.92
2023-02-11T05:52:51.835Z,36.18
2023-02-11T05:55:23.611Z,36.86
2023-02-11T05:57:55.191Z,36.28
2023-02-11T06:00:27.470Z,36.17
2023-02-11T06:02:59.324Z,35.57
2023-02-11T06:05:33.330Z,36.07
2023-02-11T06:08:05.113Z,37.76
2023-02-11T06:10:36.849Z,38.51
2023-02-11T06:13:08.774Z,40.11
2023-02-11T06:15:40.415Z,39.18
2023-02-11T06:18:12.118Z,39.09
2023-02-11T06:20:43.715Z,40.38
2023-02-11T06:23:15.364Z,41.18
2023-02-11T06:25:46.945Z,42.35
2023-02-11T06:28:18.963Z,41.57
2023-02-11T06:30:50.591Z,38.74
2023-02-11T06:33:22.439Z,37.60
2023-02-11T06:35:53.966Z,38.89
2023-02-11T06:38:25.611Z,38.55
2023-02-11T06:40:57.348Z,38.12
2023-02-11T06:43:28.925Z,38.24
2023-02-11T06:46:00.553Z,38.32
2023-02-11T06:48:32.277Z,37.39
2023-02-11T06:51:06.554Z,38.66
2023-02-11T06:53:41.820Z,39.99
2023-02-11T06:56:19.622Z,39.71
2023-02-11T06:58:55.375Z,39.25
2023-02-11T07:01:27.718Z,37.43
2023-02-11T07:03:59.489Z,39.08
2023-02-11T07:06:31.085Z,41.55
2023-02-11T07:09:03.864Z,39.19
2023-02-11T07:11:35.713Z,40.38
2023-02-11T07:14:08.217Z,39.12
2023-02-11T07:16:39.922Z,38.80
2023-02-11T07:19:12.073Z,38.21
2023-02-11T07:21:43.794Z,37.55
2023-02-11T07:24:15.579Z,38.42
2023-02-11T07:26:47.162Z,38.74
2023-02-11T07:29:18.767Z,39.32
2023-02-11T07:31:50.471Z,39.49
2023-02-11T07:34:22.203Z,40.77
2023-02-11T07:36:53.828Z,39.92
2023-02-11T07:39:25.910Z,39.13
2023-02-11T07:41:58.593Z,40.08
2023-02-11T07:44:31.061Z,40.01
2023-02-11T07:47:03.324Z,40.32
2023-02-11T07:49:34.929Z,37.94
2023-02-11T07:52:06.531Z,36.37
2023-02-11T07:54:38.141Z,36.26
2023-02-11T07:57:09.738Z,33.75
2023-02-11T07:59:41.282Z,31.84
2023-02-11T08:02:13.008Z,33.75
2023-02-11T08:04:46.370Z,34.95
2023-02-11T08:07:18.474Z,34.97
2023-02-11T08:09:50.077Z,34.35
2023-02-11T08:12:21.715Z,32.50
2023-02-11T08:14:53.378Z,32.90
2023-02-11T08:17:25.011Z,34.20
2023-02-11T08:19:56.636Z,35.48
2023-02-11T08:22:30.886Z,35.03
2023-02-11T08:25:02.497Z,36.71
2023-02-11T08:27:34.131Z,36.55
2023-02-11T08:30:06.279Z,35.12
2023-02-11T08:32:37.815Z,33.40
2023-02-11T08:35:09.649Z,35.85
2023-02-11T08:37:41.223Z,37.46
2023-02-11T08:40:12.819Z,41.45
2023-02-11T08:42:44.536Z,39.47
2023-02-11T08:45:16.185Z,39.83
2023-02-11T08:47:47.848Z,39.45
2023-02-11T08:50:19.584Z,37.93
2023-02-11T08:52:51.154Z,39.54
2023-02-11T08:55:22.789Z,38.78
2023-02-11T08:57:54.339Z,37.40
2023-02-11T09:00:26.084Z,39.44
2023-02-11T09:02:57.763Z,39.34
2023-02-11T09:05:29.353Z,37.65
2023-02-11T09:08:00.909Z,37.97
2023-02-11T09:10:33.177Z,36.84
2023-02-11T09:13:05.190Z,36.83
2023-02-11T09:15:37.220Z,38.85
2023-02-11T09:18:08.931Z,37.28
2023-02-11T09:20:40.583Z,38.53
2023-02-11T09:23:12.197Z,38.94
2023-02-11T09:25:43.996Z,38.88
2023-02-11T09:28:15.628Z,39.80
2023-02-11T09:30:47.342Z,40.09
2023-02-11T09:33:18.969Z,39.36
2023-02-11T09:35:50.569Z,40.95
2023-02-11T09:38:22.191Z,38.95
2023-02-11T09:40:54.019Z,38.21
2023-02-11T09:43:47.141Z,38.62
2023-02-11T09:46:21.237Z,37.31
2023-02-11T09:48:56.186Z,39.61
2023-02-11T09:51:36.808Z,38.70
2023-02-11T09:54:28.728Z,36.52
2023-02-11T09:57:00.441Z,37.13
2023-02-11T09:59:32.122Z,37.26
2023-02-11T10:02:18.482Z,35.93
2023-02-11T10:05:30.502Z,37.69
2023-02-11T10:08:37.222Z,38.16
2023-02-11T10:11:31.297Z,36.57
2023-02-11T10:14:29.665Z,35.61
2023-02-11T10:17:16.542Z,37.68
2023-02-11T10:20:03.092Z,37.14
2023-02-11T10:22:45.316Z,35.93
2023-02-11T10:25:27.842Z,37.12
2023-02-11T10:28:02.385Z,37.34
2023-02-11T10:30:52.916Z,36.38
2023-02-11T10:33:31.040Z,35.35
2023-02-11T10:36:04.264Z,33.35
2023-02-11T10:38:36.713Z,33.02
2023-02-11T10:41:17.581Z,35.29
2023-02-11T10:43:50.981Z,35.39
2023-02-11T10:46:33.023Z,34.60
2023-02-11T10:49:04.743Z,34.63
2023-02-11T10:51:36.386Z,34.19
2023-02-11T10:54:07.957Z,34.43
2023-02-11T10:56:50.343Z,34.88
2023-02-11T10:59:30.479Z,34.48
2023-02-11T11:02:23.766Z,34.22
2023-02-11T11:05:02.923Z,34.52
2023-02-11T11:07:36.330Z,34.53
2023-02-11T11:10:39.674Z,33.89
2023-02-11T11:13:38.775Z,35.24
2023-02-11T11:16:13.456Z,36.71
2023-02-11T11:18:48.945Z,37.38
2023-02-11T11:21:30.286Z,39.51
2023-02-11T11:24:04.126Z,37.62
2023-02-11T11:26:40.816Z,38.55
2023-02-11T11:29:26.718Z,37.88
2023-02-11T11:32:02.570Z,39.59
2023-02-11T11:34:39.848Z,40.12
2023-02-11T11:37:23.768Z,38.96
2023-02-11T11:40:10.706Z,38.84
2023-02-11T11:42:43.267Z,39.32
2023-02-11T11:45:17.932Z,42.65
2023-02-11T11:48:24.532Z,38.63
2023-02-11T11:51:05.849Z,40.86
2023-02-11T11:54:12.893Z,39.56
2023-02-11T11:56:59.943Z,39.15
2023-02-11T11:59:32.163Z,39.97
2023-02-11T12:02:25.485Z,41.43
2023-02-11T12:05:09.428Z,39.42
2023-02-11T12:07:59.022Z,40.01
2023-02-11T12:11:05.242Z,38.37
2023-02-11T12:14:23.314Z,39.54
2023-02-11T12:17:22.847Z,37.08
2023-02-11T12:20:19.059Z,37.87
2023-02-11T12:22:50.593Z,38.13
2023-02-11T12:25:28.479Z,37.62
2023-02-11T12:28:18.035Z,38.59
2023-02-11T12:30:57.213Z,38.71
2023-02-11T12:33:51.614Z,38.73
2023-02-11T12:36:50.503Z,37.62
2023-02-11T12:39:27.972Z,38.28
2023-02-11T12:42:23.052Z,39.46
2023-02-11T12:45:12.747Z,39.24
2023-02-11T12:48:12.966Z,38.98
2023-02-11T12:51:01.212Z,38.32
2023-02-11T12:53:48.818Z,38.33
2023-02-11T12:56:36.336Z,38.68
2023-02-11T12:59:46.896Z,38.14
2023-02-11T13:02:28.921Z,39.18
2023-02-11T13:05:17.498Z,40.74
2023-02-11T13:07:53.410Z,37.86
2023-02-11T13:10:35.263Z,39.47
2023-02-11T13:13:36.065Z,39.64
2023-02-11T13:16:30.224Z,38.50
2023-02-11T13:19:27.947Z,40.22
2023-02-11T13:22:19.982Z,39.29
2023-02-11T13:24:58.774Z,38.36
2023-02-11T13:27:45.553Z,36.86
2023-02-11T13:30:34.330Z,38.10
2023-02-11T13:33:17.112Z,37.73
2023-02-11T13:36:08.605Z,36.40
2023-02-11T13:38:40.512Z,35.56
2023-02-11T13:41:26.943Z,35.69
2023-02-11T13:44:24.617Z,33.99
2023-02-11T13:46:58.387Z,32.90
2023-02-11T13:49:32.656Z,31.89
2023-02-11T13:52:16.386Z,31.57
2023-02-11T13:54:52.388Z,33.01
2023-02-11T13:57:29.332Z,32.07
2023-02-11T14:00:25.109Z,32.66
2023-02-11T14:03:12.058Z,31.72
2023-02-11T14:06:11.690Z,32.52
2023-02-11T14:09:14.344Z,32.12
2023-02-11T14:11:47.848Z,32.21
2023-02-11T14:14:25.546Z,31.99
2023-02-11T14:16:59.983Z,31.24
2023-02-11T14:19:41.024Z,31.53
2023-02-11T14:22:15.341Z,31.16
2023-02-11T14:24:52.605Z,29.72
2023-02-11T14:27:44.717Z,30.38
2023-02-11T14:30:55.937Z,30.67
2023-02-11T14:33:36.517Z,30.15
2023-02-11T14:36:37.122Z,29.68
2023-02-11T14:39:32.523Z,30.74
2023-02-11T14:42:04.789Z,29.28
2023-02-11T14:44:36.625Z,29.70
2023-02-11T14:47:20.921Z,29.29
2023-02-11T14:49:54.170Z,28.72
2023-02-11T14:52:27.503Z,28.05
2023-02-11T14:55:06.211Z,28.78
2023-02-11T14:57:37.837Z,27.99
2023-02-11T15:00:21.283Z,28.26
2023-02-11T15:02:52.995Z,27.86
2023-02-11T15:05:27.424Z,28.17
2023-02-11T15:08:04.465Z,28.22
2023-02-11T15:10:43.037Z,29.78
2023-02-11T15:13:20.991Z,29.23
2023-02-11T15:16:00.661Z,29.68
2023-02-11T15:18:56.344Z,29.87
2023-02-11T15:21:32.566Z,28.48
2023-02-11T15:24:25.164Z,28.34
2023-02-11T15:27:01.421Z,27.75
2023-02-11T15:29:44.015Z,28.88
2023-02-11T15:32:18.638Z,27.58
2023-02-11T15:34:53.709Z,29.74
2023-02-11T15:37:30.553Z,29.27
2023-02-11T15:40:20.872Z,27.24
2023-02-11T15:43:04.466Z,25.99
2023-02-11T15:45:43.823Z,27.61
2023-02-11T15:48:37.558Z,27.48
2023-02-11T15:51:27.049Z,29.12
2023-02-11T15:54:02.581Z,29.85
2023-02-11T15:56:40.926Z,31.49
2023-02-11T15:59:20.683Z,31.53
2023-02-11T16:01:54.910Z,29.77
2023-02-11T16:04:28.011Z,30.11
2023-02-11T16:06:59.646Z,31.61
2023-02-11T16:09:35.235Z,30.98
2023-02-11T16:12:25.211Z,33.13
2023-02-11T16:14:56.926Z,30.77
2023-02-11T16:17:29.716Z,30.27
2023-02-11T16:20:01.398Z,31.66
2023-02-11T16:22:33.263Z,32.81
2023-02-11T16:25:05.215Z,32.51
2023-02-11T16:27:41.401Z,32.76
2023-02-11T16:30:33.298Z,32.84
2023-02-11T16:33:05.113Z,33.41
2023-02-11T16:35:36.730Z,33.08
2023-02-11T16:38:08.294Z,32.07
2023-02-11T16:40:39.964Z,30.99
2023-02-11T16:43:12.252Z,32.60
2023-02-11T16:45:43.890Z,32.84
2023-02-11T16:48:18.318Z,33.43
2023-02-11T16:50:53.400Z,32.38
2023-02-11T16:53:25.365Z,31.93
2023-02-11T16:55:56.946Z,33.41
2023-02-11T16:58:28.584Z,31.24
2023-02-11T17:01:00.724Z,31.19
2023-02-11T17:03:32.797Z,32.40
2023-02-11T17:06:04.926Z,32.07
2023-02-11T17:08:36.562Z,31.01
2023-02-11T17:11:08.185Z,30.52
2023-02-11T17:13:39.877Z,32.48
2023-02-11T17:16:19.386Z,31.92
2023-02-11T17:18:51.079Z,31.94
2023-02-11T17:21:22.665Z,32.43
2023-02-11T17:23:54.321Z,30.63
2023-02-11T17:26:26.136Z,31.48
2023-02-11T17:28:57.725Z,32.27
2023-02-11T17:31:29.404Z,32.01
2023-02-11T17:34:01.260Z,32.43
2023-02-11T17:36:33.089Z,31.87
2023-02-11T17:39:08.108Z,31.03
2023-02-11T17:41:40.750Z,32.22
2023-02-11T17:44:12.613Z,33.82
2023-02-11T17:46:44.254Z,33.14
2023-02-11T17:49:15.855Z,33.14
2023-02-11T17:51:47.540Z,34.45
2023-02-11T17:54:19.562Z,36.24
2023-02-11T17:56:51.349Z,35.90
2023-02-11T17:59:23.018Z,36.69
2023-02-11T18:01:54.556Z,38.50
2023-02-11T18:04:26.255Z,38.02
2023-02-11T18:06:58.142Z,40.74
2023-02-11T18:09:29.759Z,43.94
2023-02-11T18:12:01.595Z,42.55
2023-02-11T18:14:33.897Z,41.32
2023-02-11T18:17:05.535Z,39.74
2023-02-11T18:19:37.115Z,40.02
2023-02-11T18:22:08.736Z,40.45
2023-02-11T18:24:41.495Z,39.70
2023-02-11T18:27:13.411Z,40.35
2023-02-11T18:29:45.361Z,38.22
2023-02-11T18:32:17.042Z,40.66
2023-02-11T18:34:48.613Z,41.51
2023-02-11T18:37:20.199Z,42.76
2023-02-11T18:39:51.872Z,41.01
2023-02-11T18:42:23.522Z,39.83
2023-02-11T18:44:55.130Z,36.70
2023-02-11T18:47:26.729Z,37.20
2023-02-11T18:49:58.275Z,37.01
2023-02-11T18:52:29.866Z,37.12
2023-02-11T18:55:01.468Z,39.03
2023-02-11T18:57:33.296Z,37.71
2023-02-11T19:00:07.885Z,36.29
2023-02-11T19:02:39.532Z,35.96
2023-02-11T19:05:11.565Z,38.31
2023-02-11T19:07:43.166Z,37.64
2023-02-11T19:10:14.806Z,38.92
2023-02-11T19:12:46.434Z,39.02
2023-02-11T19:15:18.185Z,39.33
2023-02-11T19:17:49.850Z,45.21
2023-02-11T19:20:21.499Z,48.83
2023-02-11T19:22:53.114Z,49.39
2023-02-11T19:25:24.665Z,51.66
2023-02-11T19:27:56.293Z,49.03
2023-02-11T19:30:28.154Z,47.77
2023-02-11T19:32:59.728Z,47.96
2023-02-11T19:35:34.518Z,46.26
2023-02-11T19:38:06.188Z,48.18
2023-02-11T19:40:37.727Z,48.23
2023-02-11T19:43:09.265Z,47.99
2023-02-11T19:45:40.826Z,49.59
2023-02-11T19:48:12.820Z,50.06
2023-02-11T19:50:44.481Z,49.85
2023-02-11T19:53:16.123Z,48.08
2023-02-11T19:55:48.822Z,46.82
2023-02-11T19:58:20.467Z,46.63
2023-02-11T20:00:52.056Z,45.37
2023-02-11T20:03:23.622Z,46.30
2023-02-11T20:05:55.264Z,46.49
2023-02-11T20:08:26.800Z,49.83
2023-02-11T20:11:04.990Z,47.52
2023-02-11T20:13:37.928Z,47.10
2023-02-11T20:16:12.954Z,45.58
2023-02-11T20:18:45.793Z,42.35
2023-02-11T20:21:20.968Z,42.13
2023-02-11T20:23:53.536Z,42.37
2023-02-11T20:26:31.725Z,41.06
2023-02-11T20:29:03.391Z,40.33
2023-02-11T20:31:35.122Z,40.15
2023-02-11T20:34:06.812Z,41.32
2023-02-11T20:36:38.481Z,39.79
2023-02-11T20:39:11.426Z,42.35
2023-02-11T20:41:43.042Z,42.97
2023-02-11T20:44:14.820Z,44.17
2023-02-11T20:46:46.527Z,43.02
2023-02-11T20:49:22.202Z,41.69
2023-02-11T20:51:54.444Z,39.90
2023-02-11T20:54:26.418Z,39.21
2023-02-11T20:56:58.025Z,38.77
2023-02-11T20:59:29.692Z,38.86
2023-02-11T21:02:01.347Z,39.07
2023-02-11T21:04:33.683Z,40.06
2023-02-11T21:07:05.365Z,38.77
2023-02-11T21:09:36.912Z,38.25
2023-02-11T21:12:08.491Z,38.00
2023-02-11T21:14:40.077Z,37.15
2023-02-11T21:17:12.135Z,36.43
2023-02-11T21:19:44.008Z,34.86
2023-02-11T21:22:15.647Z,35.68
2023-02-11T21:24:47.377Z,36.05
2023-02-11T21:27:18.990Z,37.02
2023-02-11T21:29:54.576Z,36.22
2023-02-11T21:32:26.648Z,37.09
2023-02-11T21:35:00.546Z,36.81
2023-02-11T21:37:33.558Z,36.30
2023-02-11T21:40:05.781Z,34.91
2023-02-11T21:42:37.366Z,33.99
2023-02-11T21:45:09.345Z,34.95
2023-02-11T21:47:40.979Z,35.87
2023-02-11T21:50:12.577Z,37.66
2023-02-11T21:52:44.222Z,39.83
2023-02-11T21:55:16.076Z,41.42
2023-02-11T21:57:47.673Z,40.86
2023-02-11T22:00:19.587Z,42.68
2023-02-11T22:02:51.338Z,41.65
2023-02-11T22:05:23.451Z,41.01
2023-02-11T22:07:55.673Z,40.12
2023-02-11T22:10:27.438Z,39.90
2023-02-11T22:12:59.132Z,40.69
2023-02-11T22:15:30.864Z,39.94
2023-02-11T22:18:02.459Z,37.96
2023-02-11T22:20:34.114Z,35.30
2023-02-11T22:23:05.791Z,35.55
2023-02-11T22:25:37.352Z,33.14
2023-02-11T22:28:08.966Z,31.83
2023-02-11T22:30:40.646Z,31.30
2023-02-11T22:33:12.261Z,28.92
2023-02-11T22:35:43.924Z,29.31
2023-02-11T22:38:15.566Z,28.93
2023-02-11T22:40:47.193Z,29.22
2023-02-11T22:43:18.856Z,28.39
2023-02-11T22:45:50.914Z,29.28
2023-02-11T22:48:23.239Z,29.33
2023-02-11T22:50:54.993Z,27.43
2023-02-11T22:53:26.558Z,27.29
2023-02-11T22:56:05.313Z,26.92
2023-02-11T22:58:37.213Z,26.93
2023-02-11T23:01:08.825Z,26.23
2023-02-11T23:03:40.646Z,26.93
2023-02-11T23:06:13.197Z,27.41
2023-02-11T23:08:45.666Z,26.94
2023-02-11T23:11:21.293Z,26.88
2023-02-11T23:13:53.904Z,28.44
2023-02-11T23:16:30.205Z,27.33
2023-02-11T23:19:06.476Z,27.43
2023-02-11T23:21:39.056Z,26.17
2023-02-11T23:24:14.807Z,25.97
2023-02-11T23:26:46.387Z,25.80
2023-02-11T23:29:17.954Z,26.44
2023-02-11T23:31:49.918Z,26.21
2023-02-11T23:34:21.618Z,26.43
2023-02-11T23:36:53.315Z,26.50
2023-02-11T23:39:25.244Z,26.26
2023-02-11T23:41:56.816Z,26.29
2023-02-11T23:44:28.476Z,25.39
2023-02-11T23:47:00.115Z,25.59
2023-02-11T23:49:31.754Z,27.24
2023-02-11T23:52:03.845Z,25.43
2023-02-11T23:54:35.474Z,26.01
2023-02-11T23:57:07.031Z,25.71
2023-02-11T23:59:38.689Z,25.72
